Time;durP1;ratioP1;P1;durP2;ratioP2;P2;SDS_P1;SDS_P2;PMS_P1;PMS_P2;Temp;Humidity;BMP_temperature;BMP_pressure;BME280_temperature;BME280_humidity;BME280_pressure;Samples;Min_cycle;Max_cycle;Signal;HPM_P1;HPM_P2
2021/08/28 00:01:44;;;;;;;0.40;0.30;;;13.40;99.90;;;;;;5029418;28;20406;-74
2021/08/28 00:04:09;;;;;;;0.40;0.20;;;13.40;99.90;;;;;;5030458;28;20415;-75
2021/08/28 00:06:35;;;;;;;0.50;0.50;;;13.40;99.90;;;;;;5030210;28;20839;-74
2021/08/28 00:09:01;;;;;;;0.40;0.30;;;13.50;99.90;;;;;;5030703;28;20387;-74
2021/08/28 00:11:27;;;;;;;0.40;0.20;;;13.50;99.90;;;;;;5030108;28;20383;-74
2021/08/28 00:13:52;;;;;;;0.40;0.20;;;13.50;99.90;;;;;;5030619;28;20446;-74
2021/08/28 00:16:18;;;;;;;0.40;0.20;;;13.50;99.90;;;;;;5030283;28;20886;-77
2021/08/28 00:18:43;;;;;;;0.40;0.30;;;13.50;99.90;;;;;;5029598;28;20476;-77
2021/08/28 00:21:09;;;;;;;0.40;0.20;;;13.40;99.90;;;;;;5030177;28;20402;-78
2021/08/28 00:23:35;;;;;;;0.40;0.20;;;13.30;99.90;;;;;;5029927;28;20421;-75
2021/08/28 00:26:01;;;;;;;0.40;0.20;;;13.40;99.90;;;;;;5030319;28;20387;-75
2021/08/28 00:28:26;;;;;;;0.40;0.20;;;13.40;99.90;;;;;;5029753;28;20379;-76
2021/08/28 00:30:52;;;;;;;0.40;0.20;;;13.40;99.90;;;;;;5034234;28;20383;-75
2021/08/28 00:33:18;;;;;;;0.40;0.20;;;13.50;99.90;;;;;;5033338;28;20433;-75
2021/08/28 00:35:44;;;;;;;0.40;0.20;;;13.50;99.90;;;;;;5033978;28;20464;-75
2021/08/28 00:38:10;;;;;;;0.40;0.30;;;13.40;99.90;;;;;;5033271;28;20390;-76
2021/08/28 00:40:38;;;;;;;0.40;0.30;;;13.40;99.90;;;;;;5033949;28;20387;-75
2021/08/28 00:43:04;;;;;;;0.40;0.25;;;13.40;99.90;;;;;;5034055;28;20399;-75
2021/08/28 00:45:36;;;;;;;0.40;0.20;;;13.30;99.90;;;;;;5033575;28;20394;-75
2021/08/28 00:48:04;;;;;;;0.40;0.20;;;13.30;99.90;;;;;;5033907;28;20379;-75
2021/08/28 00:50:31;;;;;;;0.40;0.30;;;13.30;99.90;;;;;;5033171;28;20415;-75
2021/08/28 00:52:57;;;;;;;0.40;0.20;;;13.60;99.90;;;;;;5034022;28;20915;-74
2021/08/28 00:55:27;;;;;;;0.40;0.20;;;13.60;99.90;;;;;;5031841;28;20419;-75
2021/08/28 00:57:54;;;;;;;0.40;0.30;;;13.60;99.90;;;;;;5033789;28;20716;-76
2021/08/28 01:00:20;;;;;;;0.40;0.30;;;13.50;99.90;;;;;;5033045;28;20387;-76
2021/08/28 01:02:48;;;;;;;0.40;0.30;;;13.40;99.90;;;;;;5033845;28;20429;-75
2021/08/28 01:05:35;;;;;;;0.40;0.30;;;13.50;99.90;;;;;;5033016;28;20716;-75
2021/08/28 01:08:20;;;;;;;0.40;0.30;;;13.60;99.90;;;;;;5030472;28;20443;-75
2021/08/28 01:10:53;;;;;;;0.40;0.30;;;13.50;99.90;;;;;;5033061;28;20974;-75
2021/08/28 01:13:21;;;;;;;0.40;0.30;;;13.50;99.90;;;;;;5032882;28;20371;-75
2021/08/28 01:15:50;;;;;;;0.40;0.30;;;13.70;99.90;;;;;;5015627;28;20498;-75
2021/08/28 01:18:20;;;;;;;0.40;0.30;;;13.70;99.90;;;;;;5032557;28;20387;-76
2021/08/28 01:21:04;;;;;;;0.40;0.20;;;13.60;99.90;;;;;;5033160;28;20384;-76
2021/08/28 01:23:33;;;;;;;0.40;0.20;;;13.50;99.90;;;;;;5032879;28;20538;-75
2021/08/28 01:26:05;;;;;;;0.40;0.20;;;13.60;99.90;;;;;;5033182;28;20410;-75
2021/08/28 01:28:42;;;;;;;0.40;0.20;;;13.70;99.90;;;;;;5032342;28;20383;-75
2021/08/28 01:31:10;;;;;;;0.40;0.25;;;13.60;99.90;;;;;;5015396;28;20414;-75
2021/08/28 01:33:37;;;;;;;0.70;0.50;;;13.60;99.90;;;;;;5032758;28;20387;-75
2021/08/28 01:36:03;;;;;;;0.40;0.20;;;13.60;99.90;;;;;;5032985;28;20449;-75
2021/08/28 01:38:30;;;;;;;0.40;0.30;;;13.70;99.90;;;;;;5032324;28;20817;-75
2021/08/28 01:40:56;;;;;;;0.40;0.20;;;13.60;99.90;;;;;;5032762;28;20808;-75
2021/08/28 01:43:23;;;;;;;0.40;0.20;;;13.80;99.90;;;;;;5032302;28;20394;-75
2021/08/28 01:45:49;;;;;;;0.40;0.20;;;13.90;99.90;;;;;;5032972;28;20585;-75
2021/08/28 01:48:16;;;;;;;0.40;0.20;;;13.90;99.90;;;;;;5030666;28;20395;-75
2021/08/28 01:50:42;;;;;;;0.40;0.20;;;13.80;99.90;;;;;;5032992;28;20415;-75
2021/08/28 01:53:08;;;;;;;0.40;0.20;;;13.90;99.90;;;;;;5032361;28;20388;-75
2021/08/28 01:55:34;;;;;;;0.40;0.30;;;13.70;99.90;;;;;;5032029;28;20418;-75
2021/08/28 01:58:00;;;;;;;0.40;0.20;;;13.90;99.90;;;;;;5031254;28;20411;-75
2021/08/28 02:00:26;;;;;;;0.40;0.20;;;13.80;99.90;;;;;;5031995;28;20390;-76
2021/08/28 02:02:51;;;;;;;0.40;0.20;;;13.80;99.90;;;;;;5032203;28;20417;-75
2021/08/28 02:05:17;;;;;;;0.40;0.30;;;13.80;99.90;;;;;;5031854;28;20390;-75
2021/08/28 02:08:04;;;;;;;0.40;0.20;;;13.80;99.90;;;;;;5032262;28;20418;-75
2021/08/28 02:10:41;;;;;;;0.40;0.20;;;13.70;99.90;;;;;;5031778;28;20371;-75
2021/08/28 02:13:33;;;;;;;0.40;0.20;;;13.70;99.90;;;;;;5031963;28;20441;-75
2021/08/28 02:16:07;;;;;;;0.40;0.20;;;13.80;99.90;;;;;;5021223;28;20419;-75
2021/08/28 02:18:45;;;;;;;0.40;0.30;;;13.60;99.90;;;;;;5031599;28;20383;-76
2021/08/28 02:21:12;;;;;;;0.40;0.28;;;13.60;99.90;;;;;;5032284;28;20422;-75
2021/08/28 02:23:57;;;;;;;0.40;0.20;;;13.70;99.90;;;;;;5032073;28;20484;-75
2021/08/28 02:26:29;;;;;;;0.40;0.20;;;13.80;99.90;;;;;;5031784;28;20391;-75
2021/08/28 02:29:00;;;;;;;0.80;0.50;;;13.80;99.90;;;;;;5031967;28;20445;-75
2021/08/28 02:31:35;;;;;;;0.40;0.30;;;13.80;99.90;;;;;;5031380;28;20473;-76
2021/08/28 02:34:03;;;;;;;0.40;0.20;;;13.90;99.90;;;;;;5032083;28;20418;-75
2021/08/28 02:36:30;;;;;;;0.40;0.20;;;13.90;99.90;;;;;;5030974;28;20878;-75
2021/08/28 02:38:56;;;;;;;0.40;0.28;;;13.90;99.90;;;;;;5031876;28;20379;-75
2021/08/28 02:41:23;;;;;;;0.40;0.20;;;13.80;99.90;;;;;;5031250;28;20458;-75
2021/08/28 02:43:50;;;;;;;0.40;0.30;;;14.00;99.90;;;;;;5031685;28;20376;-75
2021/08/28 02:46:17;;;;;;;0.40;0.20;;;14.00;99.90;;;;;;5031061;28;20383;-75
2021/08/28 02:48:44;;;;;;;0.40;0.20;;;14.00;99.90;;;;;;5031659;28;20392;-75
2021/08/28 02:51:11;;;;;;;0.40;0.30;;;14.10;99.90;;;;;;5031203;28;20445;-75
2021/08/28 02:53:43;;;;;;;0.40;0.28;;;14.10;99.90;;;;;;5030859;28;20860;-75
2021/08/28 02:56:10;;;;;;;0.40;0.20;;;14.00;99.90;;;;;;5031636;28;20395;-75
2021/08/28 02:58:35;;;;;;;0.40;0.20;;;13.90;99.90;;;;;;5030685;28;20379;-75
2021/08/28 03:01:02;;;;;;;0.40;0.30;;;14.10;99.90;;;;;;5031039;28;20755;-75
2021/08/28 03:03:28;;;;;;;0.40;0.20;;;13.90;99.90;;;;;;5030827;28;20391;-75
2021/08/28 03:05:54;;;;;;;0.40;0.20;;;14.00;99.90;;;;;;5031326;28;20379;-75
2021/08/28 03:08:21;;;;;;;0.40;0.20;;;14.00;99.90;;;;;;5030561;28;20424;-75
2021/08/28 03:10:49;;;;;;;0.40;0.20;;;13.90;99.90;;;;;;5031395;28;20463;-75
2021/08/28 03:13:16;;;;;;;0.40;0.20;;;13.90;99.90;;;;;;5030683;28;20372;-77
2021/08/28 03:15:46;;;;;;;0.40;0.20;;;13.90;99.90;;;;;;5030830;28;20403;-75
2021/08/28 03:18:13;;;;;;;0.40;0.20;;;13.90;99.90;;;;;;5031188;28;20391;-75
2021/08/28 03:20:45;;;;;;;0.40;0.20;;;14.00;99.90;;;;;;5030765;28;20481;-76
2021/08/28 03:23:14;;;;;;;0.40;0.20;;;13.80;99.90;;;;;;5031366;28;20732;-75
2021/08/28 03:25:41;;;;;;;0.40;0.20;;;13.80;99.90;;;;;;5030275;28;20898;-75
2021/08/28 03:28:07;;;;;;;0.40;0.20;;;13.80;99.90;;;;;;5031038;28;20383;-75
2021/08/28 03:30:33;;;;;;;0.40;0.20;;;13.90;99.90;;;;;;5030543;28;20395;-75
2021/08/28 03:32:59;;;;;;;0.40;0.20;;;14.00;99.90;;;;;;5030692;28;20383;-75
2021/08/28 03:35:25;;;;;;;0.40;0.20;;;13.90;99.90;;;;;;5030375;28;20406;-75
2021/08/28 03:37:51;;;;;;;0.40;0.20;;;14.00;99.90;;;;;;5031066;28;20486;-75
2021/08/28 03:40:17;;;;;;;0.40;0.30;;;14.00;99.90;;;;;;5030621;28;20482;-75
2021/08/28 03:42:43;;;;;;;0.40;0.25;;;14.10;99.90;;;;;;5030955;28;20458;-75
2021/08/28 03:45:10;;;;;;;0.40;0.20;;;14.10;99.90;;;;;;5030698;28;20458;-75
2021/08/28 03:47:40;;;;;;;0.40;0.28;;;14.10;99.90;;;;;;5030277;28;20714;-75
2021/08/28 03:50:06;;;;;;;0.40;0.20;;;14.00;99.90;;;;;;5031027;28;20784;-75
2021/08/28 03:52:32;;;;;;;0.40;0.20;;;14.10;99.90;;;;;;5033696;28;20407;-76
2021/08/28 03:54:58;;;;;;;0.40;0.30;;;14.10;99.90;;;;;;5036776;28;20442;-75
2021/08/28 03:57:24;;;;;;;0.40;0.20;;;14.10;99.90;;;;;;5035269;28;20383;-76
2021/08/28 03:59:49;;;;;;;0.40;0.20;;;14.10;99.90;;;;;;5035298;28;20418;-75
2021/08/28 04:02:15;;;;;;;0.90;0.80;;;14.00;99.90;;;;;;5032679;28;20808;-76
2021/08/28 04:04:40;;;;;;;0.40;0.20;;;14.00;99.90;;;;;;5035067;28;20395;-76
2021/08/28 04:07:06;;;;;;;0.40;0.30;;;14.10;99.90;;;;;;5035464;28;20440;-75
2021/08/28 04:09:32;;;;;;;0.40;0.20;;;14.20;99.90;;;;;;5034752;28;20510;-75
2021/08/28 04:11:57;;;;;;;0.40;0.20;;;14.20;99.90;;;;;;5035529;28;20377;-75
2021/08/28 04:14:23;;;;;;;0.40;0.20;;;14.10;99.90;;;;;;5033016;28;20418;-75
2021/08/28 04:16:48;;;;;;;0.40;0.20;;;14.00;99.90;;;;;;5035342;28;20387;-75
2021/08/28 04:19:14;;;;;;;0.40;0.20;;;14.00;99.90;;;;;;5034885;28;20437;-74
2021/08/28 04:21:40;;;;;;;0.40;0.20;;;13.90;99.90;;;;;;5032488;28;20927;-75
2021/08/28 04:24:05;;;;;;;0.40;0.20;;;13.90;99.90;;;;;;5034704;28;20395;-76
2021/08/28 04:26:31;;;;;;;0.40;0.20;;;13.90;99.90;;;;;;5034391;28;20375;-75
2021/08/28 04:28:57;;;;;;;0.40;0.20;;;13.80;99.90;;;;;;5033840;28;20477;-75
2021/08/28 04:31:23;;;;;;;0.40;0.20;;;13.70;99.90;;;;;;5034311;28;20378;-75
2021/08/28 04:33:50;;;;;;;0.40;0.20;;;13.80;99.90;;;;;;5034580;28;20476;-75
2021/08/28 04:36:16;;;;;;;0.40;0.20;;;13.80;99.90;;;;;;5035224;28;20398;-75
2021/08/28 04:38:41;;;;;;;0.40;0.20;;;13.90;99.90;;;;;;5034243;28;20380;-75
2021/08/28 04:41:07;;;;;;;0.40;0.30;;;13.80;99.90;;;;;;5034765;28;20519;-76
2021/08/28 04:43:32;;;;;;;0.40;0.30;;;14.00;99.90;;;;;;5033908;28;20832;-75
2021/08/28 04:45:58;;;;;;;0.40;0.20;;;14.30;99.90;;;;;;5033274;28;20425;-74
2021/08/28 04:48:24;;;;;;;0.40;0.20;;;14.50;99.90;;;;;;5033655;28;20867;-75
2021/08/28 04:50:49;;;;;;;0.40;0.20;;;14.50;99.90;;;;;;5034326;28;20474;-75
2021/08/28 04:53:15;;;;;;;0.40;0.20;;;14.60;99.90;;;;;;5034374;28;20399;-75
2021/08/28 04:55:41;;;;;;;0.40;0.20;;;14.60;99.90;;;;;;5033553;28;20749;-75
2021/08/28 04:58:06;;;;;;;0.40;0.20;;;14.50;99.90;;;;;;5032820;28;20483;-76
2021/08/28 05:00:32;;;;;;;0.40;0.30;;;14.40;99.90;;;;;;5032225;28;20383;-76
2021/08/28 05:02:58;;;;;;;0.40;0.20;;;14.30;99.90;;;;;;5033908;28;20509;-77
2021/08/28 05:05:23;;;;;;;0.40;0.20;;;14.40;99.90;;;;;;5032123;28;20391;-74
2021/08/28 05:07:49;;;;;;;0.40;0.30;;;14.50;99.90;;;;;;5033698;28;20375;-74
2021/08/28 05:10:15;;;;;;;0.40;0.20;;;14.40;99.90;;;;;;5033897;28;20740;-74
2021/08/28 05:12:40;;;;;;;0.40;0.30;;;14.40;99.90;;;;;;5033304;28;20383;-74
2021/08/28 05:15:06;;;;;;;0.40;0.20;;;14.50;99.90;;;;;;5033080;28;20457;-74
2021/08/28 05:17:32;;;;;;;0.40;0.20;;;14.60;99.90;;;;;;5033139;28;20835;-74
2021/08/28 05:19:57;;;;;;;0.40;0.30;;;14.70;99.90;;;;;;5033731;28;20779;-74
2021/08/28 05:22:23;;;;;;;0.40;0.30;;;14.50;99.90;;;;;;5032828;28;20411;-74
2021/08/28 05:24:49;;;;;;;0.40;0.30;;;14.60;99.90;;;;;;5033647;28;20383;-73
2021/08/28 05:27:15;;;;;;;0.40;0.30;;;14.70;99.90;;;;;;5033620;28;20388;-74
2021/08/28 05:29:41;;;;;;;0.40;0.20;;;14.70;99.90;;;;;;5032997;28;20387;-74
2021/08/28 05:32:08;;;;;;;0.40;0.20;;;14.70;99.90;;;;;;5033668;28;20382;-74
2021/08/28 05:34:34;;;;;;;0.40;0.20;;;14.50;99.90;;;;;;5015160;28;20419;-74
2021/08/28 05:37:00;;;;;;;0.40;0.20;;;14.60;99.90;;;;;;5033110;28;20479;-74
2021/08/28 05:39:25;;;;;;;0.40;0.28;;;14.50;99.90;;;;;;5032955;28;20462;-74
2021/08/28 05:41:51;;;;;;;0.40;0.20;;;14.50;99.90;;;;;;5033754;28;20386;-74
2021/08/28 05:44:16;;;;;;;0.40;0.30;;;14.60;99.90;;;;;;5033516;28;20387;-74
2021/08/28 05:46:42;;;;;;;0.40;0.30;;;14.70;99.90;;;;;;5032583;28;20456;-74
2021/08/28 05:49:08;;;;;;;0.40;0.20;;;14.60;99.90;;;;;;5033137;28;20389;-74
2021/08/28 05:51:33;;;;;;;0.40;0.30;;;14.60;99.90;;;;;;5032404;28;20731;-74
2021/08/28 05:53:59;;;;;;;0.40;0.30;;;14.60;99.90;;;;;;5033247;28;20395;-74
2021/08/28 05:56:24;;;;;;;0.40;0.25;;;14.60;99.90;;;;;;5032448;28;20379;-77
2021/08/28 05:58:50;;;;;;;0.40;0.30;;;14.60;99.90;;;;;;5032855;28;20379;-75
2021/08/28 06:01:16;;;;;;;0.40;0.30;;;14.60;99.90;;;;;;5033133;28;20462;-74
2021/08/28 06:03:41;;;;;;;0.40;0.30;;;14.70;99.90;;;;;;5031818;28;20725;-75
2021/08/28 06:06:07;;;;;;;0.40;0.20;;;14.80;99.90;;;;;;5032873;28;20390;-75
2021/08/28 06:08:32;;;;;;;0.40;0.27;;;14.80;99.90;;;;;;5031595;28;20748;-75
2021/08/28 06:10:58;;;;;;;0.40;0.30;;;14.70;99.90;;;;;;5032024;28;20379;-74
2021/08/28 06:13:24;;;;;;;0.40;0.30;;;14.80;99.90;;;;;;5032475;28;20383;-75
2021/08/28 06:15:49;;;;;;;0.40;0.20;;;14.70;99.90;;;;;;5014236;28;20433;-75
2021/08/28 06:18:15;;;;;;;0.40;0.20;;;14.80;99.90;;;;;;5032625;28;20395;-74
2021/08/28 06:20:40;;;;;;;0.40;0.20;;;14.80;99.90;;;;;;5031566;28;20776;-75
2021/08/28 06:23:06;;;;;;;0.40;0.20;;;14.80;99.90;;;;;;5032522;28;20415;-75
2021/08/28 06:25:32;;;;;;;0.40;0.30;;;14.70;99.90;;;;;;5031548;28;20437;-76
2021/08/28 06:27:57;;;;;;;0.40;0.30;;;14.70;99.90;;;;;;5032450;28;20390;-74
2021/08/28 06:30:23;;;;;;;0.40;0.20;;;14.80;99.90;;;;;;5032392;28;20425;-77
2021/08/28 06:32:49;;;;;;;0.40;0.20;;;14.90;99.90;;;;;;5031504;28;20383;-77
2021/08/28 06:35:14;;;;;;;0.40;0.30;;;14.90;99.90;;;;;;5032104;28;20415;-75
2021/08/28 06:37:40;;;;;;;0.40;0.20;;;14.90;99.90;;;;;;5031606;28;20395;-75
2021/08/28 06:40:06;;;;;;;0.40;0.30;;;14.90;99.90;;;;;;5032234;28;20410;-76
2021/08/28 06:42:32;;;;;;;0.40;0.30;;;14.80;99.90;;;;;;5030855;28;20387;-75
2021/08/28 06:44:57;;;;;;;0.40;0.20;;;14.90;99.90;;;;;;5031651;28;20383;-75
2021/08/28 06:47:23;;;;;;;0.40;0.22;;;14.80;99.90;;;;;;5031545;28;20725;-74
2021/08/28 06:49:48;;;;;;;0.40;0.30;;;14.70;99.90;;;;;;5031022;28;20371;-74
2021/08/28 06:52:14;;;;;;;0.40;0.20;;;14.70;99.90;;;;;;5031563;28;20390;-74
2021/08/28 06:54:40;;;;;;;0.40;0.30;;;14.60;99.90;;;;;;5013018;28;20411;-74
2021/08/28 06:57:05;;;;;;;0.40;0.20;;;14.60;99.90;;;;;;5031497;28;20387;-74
2021/08/28 06:59:31;;;;;;;0.40;0.30;;;14.70;99.90;;;;;;5013223;28;20391;-75
2021/08/28 07:01:56;;;;;;;0.40;0.30;;;14.80;99.90;;;;;;5029636;28;20396;-74
2021/08/28 07:04:22;;;;;;;0.40;0.20;;;14.80;99.90;;;;;;5031314;28;20402;-74
2021/08/28 07:06:48;;;;;;;0.40;0.20;;;14.90;99.90;;;;;;5031041;28;20754;-74
2021/08/28 07:09:13;;;;;;;0.40;0.20;;;14.90;99.90;;;;;;5030353;28;20466;-75
2021/08/28 07:11:39;;;;;;;0.40;0.30;;;14.90;99.90;;;;;;5030898;28;20379;-74
2021/08/28 07:14:05;;;;;;;0.40;0.30;;;14.90;99.90;;;;;;5031273;28;20398;-74
2021/08/28 07:16:30;;;;;;;0.40;0.30;;;14.90;99.90;;;;;;5030875;28;20379;-75
2021/08/28 07:18:56;;;;;;;0.40;0.30;;;14.70;99.90;;;;;;5031598;28;20379;-75
2021/08/28 07:21:22;;;;;;;0.40;0.40;;;14.70;99.90;;;;;;5031067;28;20394;-75
2021/08/28 07:23:47;;;;;;;0.40;0.20;;;14.70;99.90;;;;;;5031063;28;20879;-74
2021/08/28 07:26:15;;;;;;;0.40;0.30;;;14.80;99.90;;;;;;5031535;28;20437;-74
2021/08/28 07:28:41;;;;;;;0.40;0.20;;;14.80;99.90;;;;;;5030894;28;20466;-74
2021/08/28 07:31:07;;;;;;;0.40;0.30;;;14.80;99.90;;;;;;5031403;28;20488;-74
2021/08/28 07:33:33;;;;;;;0.40;0.30;;;14.80;99.90;;;;;;5030757;28;20390;-79
2021/08/28 07:35:59;;;;;;;0.40;0.20;;;14.70;99.90;;;;;;5030512;28;20506;-79
2021/08/28 07:38:24;;;;;;;0.40;0.30;;;14.80;99.90;;;;;;5029631;28;20437;-79
2021/08/28 07:40:50;;;;;;;0.40;0.20;;;14.70;99.90;;;;;;5030948;28;20635;-79
2021/08/28 07:43:16;;;;;;;0.40;0.20;;;14.70;99.90;;;;;;5031343;28;20383;-78
2021/08/28 07:45:41;;;;;;;0.40;0.30;;;14.70;99.90;;;;;;5012138;28;20409;-78
2021/08/28 07:48:07;;;;;;;0.40;0.20;;;14.70;99.90;;;;;;5029897;28;20426;-78
2021/08/28 07:50:33;;;;;;;0.40;0.20;;;14.60;99.90;;;;;;5029730;28;20375;-79
2021/08/28 07:52:59;;;;;;;0.40;0.20;;;14.60;99.90;;;;;;5030749;28;20441;-80
2021/08/28 07:55:27;;;;;;;0.40;0.25;;;14.60;99.90;;;;;;5016454;28;20447;-78
2021/08/28 07:57:54;;;;;;;0.40;0.25;;;14.80;99.90;;;;;;5010960;28;20393;-78
2021/08/28 08:00:19;;;;;;;0.40;0.20;;;14.70;99.90;;;;;;5011335;28;20392;-79
2021/08/28 08:02:45;;;;;;;0.40;0.20;;;14.60;99.90;;;;;;5010599;28;20464;-78
2021/08/28 08:05:11;;;;;;;0.40;0.30;;;14.60;99.90;;;;;;5011076;28;20385;-78
2021/08/28 08:07:36;;;;;;;0.40;0.20;;;14.80;99.90;;;;;;5019896;28;20513;-78
2021/08/28 08:10:03;;;;;;;0.40;0.30;;;14.80;99.90;;;;;;5031146;28;20387;-79
2021/08/28 08:12:29;;;;;;;0.40;0.30;;;14.90;99.90;;;;;;5031004;28;20376;-79
2021/08/28 08:14:55;;;;;;;0.40;0.30;;;14.80;99.90;;;;;;5030435;28;20406;-79
2021/08/28 08:17:20;;;;;;;0.40;0.30;;;14.80;99.90;;;;;;5030988;28;20387;-80
2021/08/28 08:19:46;;;;;;;0.40;0.20;;;14.80;99.90;;;;;;5029122;28;20394;-79
2021/08/28 08:22:12;;;;;;;0.40;0.30;;;14.80;99.90;;;;;;5029161;28;20427;-80
2021/08/28 08:24:38;;;;;;;0.40;0.20;;;14.70;99.90;;;;;;5030483;28;20444;-79
2021/08/28 08:27:03;;;;;;;0.40;0.20;;;14.80;99.90;;;;;;5030672;28;20714;-79
2021/08/28 08:29:29;;;;;;;0.40;0.20;;;14.90;99.90;;;;;;5030752;28;20391;-81
2021/08/28 08:31:55;;;;;;;0.40;0.20;;;15.00;99.90;;;;;;5030357;28;20398;-79
2021/08/28 08:34:21;;;;;;;0.40;0.20;;;15.10;99.90;;;;;;5030757;28;20763;-80
2021/08/28 08:36:47;;;;;;;0.40;0.20;;;14.90;99.90;;;;;;5030197;28;20713;-80
2021/08/28 08:39:13;;;;;;;0.40;0.30;;;14.80;99.90;;;;;;5030989;28;20455;-80
2021/08/28 08:41:40;;;;;;;0.40;0.20;;;14.70;99.90;;;;;;5030179;28;20466;-79
2021/08/28 08:44:07;;;;;;;0.40;0.20;;;14.80;99.90;;;;;;5030931;28;20415;-80
2021/08/28 08:46:36;;;;;;;0.40;0.30;;;14.90;99.90;;;;;;5028991;28;20752;-80
2021/08/28 08:49:03;;;;;;;0.40;0.30;;;14.90;99.90;;;;;;5030814;28;20748;-82
2021/08/28 08:51:30;;;;;;;0.40;0.20;;;14.90;99.90;;;;;;5033106;28;20425;-81
2021/08/28 08:53:57;;;;;;;0.40;0.30;;;14.90;99.90;;;;;;5032083;28;20430;-80
2021/08/28 08:56:23;;;;;;;0.40;0.20;;;14.90;99.90;;;;;;5034312;28;20384;-80
2021/08/28 08:58:50;;;;;;;0.40;0.30;;;14.90;99.90;;;;;;5033543;28;20415;-79
2021/08/28 09:01:16;;;;;;;0.40;0.20;;;15.00;99.90;;;;;;5031850;28;20474;-79
2021/08/28 09:03:42;;;;;;;0.40;0.20;;;15.00;99.90;;;;;;5033853;28;20482;-82
2021/08/28 09:06:08;;;;;;;0.40;0.30;;;15.00;99.90;;;;;;5033958;28;20899;-80
2021/08/28 09:08:33;;;;;;;0.40;0.20;;;15.00;99.90;;;;;;5033814;28;20383;-82
2021/08/28 09:10:59;;;;;;;0.40;0.20;;;15.10;99.90;;;;;;5033276;28;20462;-81
2021/08/28 09:13:25;;;;;;;0.40;0.20;;;15.20;99.90;;;;;;5033915;28;20782;-82
2021/08/28 09:15:58;;;;;;;0.40;0.30;;;15.10;99.90;;;;;;5033233;28;20411;-82
2021/08/28 09:18:24;;;;;;;0.40;0.20;;;15.20;99.90;;;;;;5033903;28;20474;-81
2021/08/28 09:20:50;;;;;;;0.40;0.30;;;15.20;99.90;;;;;;5033569;28;20382;-81
2021/08/28 09:23:19;;;;;;;0.40;0.20;;;15.20;99.90;;;;;;5033617;28;20508;-79
2021/08/28 09:25:48;;;;;;;0.40;0.30;;;15.40;99.90;;;;;;5033009;28;20426;-82
2021/08/28 09:28:15;;;;;;;0.40;0.30;;;15.40;99.90;;;;;;5033237;28;20736;-81
2021/08/28 09:30:44;;;;;;;0.40;0.30;;;15.40;99.90;;;;;;5032709;28;20388;-82
2021/08/28 09:33:14;;;;;;;0.40;0.30;;;15.40;99.90;;;;;;5033111;28;20785;-81
2021/08/28 09:35:46;;;;;;;0.70;0.60;;;15.20;99.90;;;;;;5031385;28;20767;-79
2021/08/28 09:38:16;;;;;;;0.40;0.20;;;15.20;99.90;;;;;;5033026;28;20388;-81
2021/08/28 09:40:43;;;;;;;0.40;0.30;;;15.20;99.90;;;;;;5031976;28;20725;-78
2021/08/28 09:43:15;;;;;;;0.40;0.20;;;15.10;99.90;;;;;;5031612;28;20383;-81
2021/08/28 09:45:42;;;;;;;0.40;0.30;;;15.20;99.90;;;;;;5032651;28;20414;-78
2021/08/28 09:48:10;;;;;;;0.40;0.30;;;15.30;99.90;;;;;;5015271;28;20406;-80
2021/08/28 09:50:45;;;;;;;0.40;0.20;;;15.30;99.90;;;;;;5031752;28;20418;-78
2021/08/28 09:53:21;;;;;;;0.40;0.30;;;15.30;99.90;;;;;;5032598;28;20453;-81
2021/08/28 09:55:54;;;;;;;0.40;0.20;;;15.30;99.90;;;;;;5030656;28;20414;-79
2021/08/28 09:58:24;;;;;;;0.40;0.27;;;15.30;99.90;;;;;;5032708;28;20420;-79
2021/08/28 10:00:50;;;;;;;0.40;0.30;;;15.30;99.90;;;;;;5031636;28;20382;-79
2021/08/28 10:03:17;;;;;;;0.40;0.30;;;15.50;99.90;;;;;;5032197;28;20388;-78
2021/08/28 10:05:45;;;;;;;0.40;0.20;;;15.60;99.90;;;;;;5031819;28;20402;-79
2021/08/28 10:08:11;;;;;;;0.40;0.30;;;15.60;99.90;;;;;;5030556;28;20484;-81
2021/08/28 10:10:39;;;;;;;0.40;0.20;;;15.60;99.90;;;;;;5032480;28;20461;-79
2021/08/28 10:13:07;;;;;;;0.40;0.40;;;15.60;99.90;;;;;;5032317;28;20429;-78
2021/08/28 10:15:34;;;;;;;0.40;0.20;;;15.60;99.90;;;;;;5031358;28;20407;-79
2021/08/28 10:18:03;;;;;;;0.40;0.20;;;15.50;99.90;;;;;;5032059;28;21129;-78
2021/08/28 10:20:30;;;;;;;0.40;0.20;;;15.50;99.90;;;;;;5032709;28;20466;-81
2021/08/28 10:23:00;;;;;;;0.40;0.20;;;15.50;99.90;;;;;;5031852;28;20411;-78
2021/08/28 10:25:28;;;;;;;0.40;0.30;;;15.60;99.90;;;;;;5032596;28;20399;-79
2021/08/28 10:27:55;;;;;;;0.40;0.20;;;15.80;99.90;;;;;;5031586;28;20383;-79
2021/08/28 10:30:25;;;;;;;0.40;0.20;;;15.70;99.90;;;;;;5031079;28;20401;-79
2021/08/28 10:32:52;;;;;;;0.40;0.20;;;15.60;99.90;;;;;;5031006;28;20384;-80
2021/08/28 10:35:20;;;;;;;0.40;0.20;;;15.50;99.90;;;;;;5031886;28;20494;-78
2021/08/28 10:37:46;;;;;;;0.40;0.20;;;15.60;99.90;;;;;;5031087;28;20383;-79
2021/08/28 10:40:19;;;;;;;0.40;0.20;;;15.60;99.90;;;;;;5032507;28;20376;-81
2021/08/28 10:42:48;;;;;;;0.40;0.20;;;15.40;99.90;;;;;;5031646;28;20432;-78
2021/08/28 10:45:13;;;;;;;0.40;0.20;;;15.50;99.90;;;;;;5032368;28;20387;-80
2021/08/28 10:47:46;;;;;;;0.40;0.20;;;15.50;99.90;;;;;;5031763;28;20418;-80
2021/08/28 10:50:13;;;;;;;0.40;0.20;;;15.60;99.90;;;;;;5014264;28;20394;-80
2021/08/28 10:52:47;;;;;;;0.40;0.20;;;15.80;99.90;;;;;;5032174;28;20859;-80
2021/08/28 10:55:13;;;;;;;0.40;0.20;;;15.90;99.90;;;;;;5032195;28;20437;-80
2021/08/28 10:57:40;;;;;;;0.40;0.20;;;15.90;99.90;;;;;;5032150;28;20388;-81
2021/08/28 11:00:11;;;;;;;0.40;0.30;;;15.80;99.90;;;;;;5013772;28;20387;-78
2021/08/28 11:02:53;;;;;;;0.40;0.30;;;15.70;99.90;;;;;;5031827;28;20398;-81
2021/08/28 11:05:22;;;;;;;0.40;0.20;;;15.70;99.90;;;;;;5032227;28;20871;-80
2021/08/28 11:07:48;;;;;;;0.40;0.30;;;15.60;99.90;;;;;;5031041;28;20410;-79
2021/08/28 11:10:27;;;;;;;0.40;0.20;;;15.50;99.90;;;;;;5031950;28;20379;-79
2021/08/28 11:12:55;;;;;;;0.40;0.20;;;15.50;99.90;;;;;;5028016;28;20915;-78
2021/08/28 11:15:24;;;;;;;0.40;0.30;;;15.60;99.90;;;;;;5028537;28;20415;-78
2021/08/28 11:17:49;;;;;;;0.40;0.30;;;15.40;99.90;;;;;;5029612;28;20403;-80
2021/08/28 11:20:23;;;;;;;0.40;0.30;;;15.50;99.90;;;;;;5031071;28;20465;-81
2021/08/28 11:22:52;;;;;;;0.40;0.30;;;15.40;99.90;;;;;;5030130;28;20419;-80
2021/08/28 11:25:24;;;;;;;0.40;0.30;;;15.30;99.90;;;;;;5029322;28;20427;-79
2021/08/28 11:27:55;;;;;;;0.40;0.30;;;15.20;99.90;;;;;;5029828;28;20410;-80
2021/08/28 11:30:57;;;;;;;0.40;0.20;;;15.20;99.90;;;;;;5030933;28;20763;-80
2021/08/28 11:33:27;;;;;;;0.40;0.20;;;15.10;99.90;;;;;;5030937;28;20383;-80
2021/08/28 11:35:58;;;;;;;0.40;0.30;;;15.20;99.90;;;;;;5030973;28;20409;-77
2021/08/28 11:38:33;;;;;;;0.40;0.30;;;15.00;99.90;;;;;;5031349;28;20383;-80
2021/08/28 11:41:13;;;;;;;0.40;0.20;;;15.00;99.90;;;;;;5030921;28;20383;-80
2021/08/28 11:43:43;;;;;;;0.40;0.20;;;15.10;99.90;;;;;;5013890;28;20391;-80
2021/08/28 11:46:11;;;;;;;0.40;0.30;;;15.40;99.90;;;;;;5029305;28;20399;-80
2021/08/28 11:48:39;;;;;;;0.40;0.30;;;15.50;99.90;;;;;;5031454;28;20379;-79
2021/08/28 11:51:09;;;;;;;0.40;0.30;;;15.70;99.90;;;;;;5029529;28;20394;-77
2021/08/28 11:53:38;;;;;;;0.40;0.20;;;15.90;99.90;;;;;;5030007;28;20453;-74
2021/08/28 11:56:09;;;;;;;0.40;0.30;;;16.10;99.90;;;;;;5029608;28;20844;-74
2021/08/28 11:58:55;;;;;;;0.40;0.20;;;16.10;99.90;;;;;;5046512;28;20803;-76
2021/08/28 12:01:24;;;;;;;0.40;0.30;;;16.10;99.90;;;;;;5031237;28;20732;-76
2021/08/28 12:03:50;;;;;;;0.40;0.30;;;16.00;99.90;;;;;;5028194;28;20398;-76
2021/08/28 12:06:16;;;;;;;0.40;0.20;;;16.00;99.90;;;;;;5029362;28;20477;-76
2021/08/28 12:08:42;;;;;;;0.40;0.20;;;15.90;99.90;;;;;;5030672;28;20387;-76
2021/08/28 12:11:08;;;;;;;0.40;0.30;;;15.80;99.90;;;;;;5030412;28;20375;-76
2021/08/28 12:13:58;;;;;;;0.40;0.20;;;15.90;99.90;;;;;;5029925;28;20478;-78
2021/08/28 12:16:37;;;;;;;0.40;0.20;;;16.00;99.90;;;;;;5031177;28;20402;-76
2021/08/28 12:19:05;;;;;;;0.40;0.20;;;16.00;99.90;;;;;;5030416;28;20390;-74
2021/08/28 12:21:34;;;;;;;0.40;0.20;;;15.80;99.90;;;;;;5030501;28;20890;-77
2021/08/28 12:24:18;;;;;;;0.40;0.20;;;15.90;99.90;;;;;;5031425;28;20390;-75
2021/08/28 12:26:49;;;;;;;0.40;0.20;;;16.00;99.90;;;;;;5034751;28;20795;-74
2021/08/28 12:29:30;;;;;;;0.40;0.20;;;16.10;99.90;;;;;;5033946;28;20390;-74
2021/08/28 12:31:59;;;;;;;0.40;0.20;;;16.10;99.90;;;;;;5034474;28;20796;-74
2021/08/28 12:34:28;;;;;;;0.40;0.20;;;16.00;99.90;;;;;;5016174;28;20664;-73
2021/08/28 12:36:54;;;;;;;0.40;0.30;;;16.00;99.90;;;;;;5033609;28;20441;-74
2021/08/28 12:39:20;;;;;;;0.40;0.25;;;15.90;99.90;;;;;;5034660;28;20383;-74
2021/08/28 12:41:46;;;;;;;0.40;0.30;;;15.90;99.90;;;;;;5034391;28;20415;-72
2021/08/28 12:44:13;;;;;;;0.40;0.20;;;16.20;99.90;;;;;;5033745;28;20676;-73
2021/08/28 12:46:40;;;;;;;0.40;0.30;;;16.10;99.90;;;;;;5034412;28;20402;-72
2021/08/28 12:49:16;;;;;;;0.40;0.30;;;16.30;99.90;;;;;;5033425;28;20414;-73
2021/08/28 12:52:04;;;;;;;0.40;0.30;;;16.10;99.90;;;;;;5032300;28;20934;-72